Time;durP1;ratioP1;P1;durP2;ratioP2;P2;SDS_P1;SDS_P2;PMS_P1;PMS_P2;Temp;Humidity;BMP_temperature;BMP_pressure;BME280_temperature;BME280_humidity;BME280_pressure;Samples;Min_cycle;Max_cycle;Signal;HPM_P1;HPM_P2
2022/07/21 00:05:01;;;;;;;2.28;1.62;;;30.10;53.30;;;;;;10931396;32;20312;-72
2022/07/21 00:11:03;;;;;;;5.05;1.85;;;30.10;53.20;;;;;;10943874;32;20020;-72
2022/07/21 00:17:05;;;;;;;2.65;1.75;;;30.00;53.40;;;;;;10943889;32;20016;-72
2022/07/21 00:23:07;;;;;;;1.75;1.50;;;30.10;53.40;;;;;;10943461;32;20018;-72
2022/07/21 00:29:10;;;;;;;3.47;1.48;;;29.90;53.60;;;;;;10943274;32;20023;-72
2022/07/21 00:35:13;;;;;;;3.80;1.95;;;29.90;53.60;;;;;;10939826;32;20019;-72
2022/07/21 00:41:14;;;;;;;4.43;2.05;;;29.70;53.90;;;;;;10942953;32;20053;-72
2022/07/21 00:47:46;;;;;;;3.97;2.10;;;29.60;54.10;;;;;;10942650;32;20339;-72
2022/07/21 00:53:48;;;;;;;4.53;2.30;;;29.60;54.10;;;;;;10938859;32;20050;-72
2022/07/21 00:59:50;;;;;;;4.12;2.08;;;29.50;54.30;;;;;;10942312;32;20019;-72
2022/07/21 01:05:52;;;;;;;2.60;1.70;;;29.50;54.60;;;;;;10942180;32;20049;-72
2022/07/21 01:11:54;;;;;;;5.05;2.17;;;29.50;54.70;;;;;;10942010;32;20014;-72
2022/07/21 01:17:56;;;;;;;4.20;2.08;;;29.30;55.10;;;;;;10937573;32;20053;-72
2022/07/21 01:24:00;;;;;;;3.15;1.62;;;29.30;55.40;;;;;;10941943;32;20328;-72
2022/07/21 01:30:03;;;;;;;2.60;1.73;;;29.30;55.30;;;;;;10941719;32;20331;-72
2022/07/21 01:36:06;;;;;;;2.83;2.03;;;29.30;55.20;;;;;;10941457;32;20026;-72
2022/07/21 01:42:08;;;;;;;3.95;2.17;;;29.20;55.30;;;;;;10941262;32;20054;-72
2022/07/21 01:48:10;;;;;;;3.72;2.25;;;29.00;55.50;;;;;;10947986;32;20430;-72
2022/07/21 01:54:12;;;;;;;3.83;2.25;;;28.80;55.70;;;;;;10948815;32;20046;-72
2022/07/21 02:00:14;;;;;;;5.37;2.12;;;28.80;55.90;;;;;;10948697;32;20015;-72
2022/07/21 02:06:16;;;;;;;3.72;2.22;;;28.80;56.20;;;;;;10948309;32;20027;-72
2022/07/21 02:12:18;;;;;;;4.00;1.60;;;28.70;56.20;;;;;;10948191;32;20046;-72
2022/07/21 02:18:21;;;;;;;2.92;1.83;;;28.60;56.40;;;;;;10947902;32;20015;-72
2022/07/21 02:24:23;;;;;;;2.17;1.60;;;28.50;56.50;;;;;;10947684;32;20339;-72
2022/07/21 02:30:25;;;;;;;3.00;1.92;;;28.50;56.50;;;;;;10947610;32;20015;-72
2022/07/21 02:36:27;;;;;;;2.35;1.45;;;28.50;56.50;;;;;;10947549;32;20347;-72
2022/07/21 02:42:29;;;;;;;3.15;1.70;;;28.50;56.40;;;;;;10947188;32;20023;-72
2022/07/21 02:48:31;;;;;;;2.53;1.40;;;28.50;56.50;;;;;;10946947;32;20027;-72
2022/07/21 02:54:44;;;;;;;2.95;1.98;;;28.40;56.50;;;;;;10946524;32;20316;-72
2022/07/21 03:00:49;;;;;;;4.45;2.10;;;28.20;56.90;;;;;;10947157;32;20027;-72
2022/07/21 03:06:51;;;;;;;2.05;1.30;;;28.10;57.10;;;;;;10932881;32;20027;-72
2022/07/21 03:12:56;;;;;;;4.35;2.42;;;28.10;57.10;;;;;;10946145;32;20425;-72
2022/07/21 03:18:58;;;;;;;3.00;2.00;;;28.10;56.80;;;;;;10945798;32;20053;-72
2022/07/21 03:25:00;;;;;;;3.10;2.15;;;28.20;56.50;;;;;;10945793;32;20033;-72
2022/07/21 03:31:02;;;;;;;3.67;2.08;;;28.20;56.60;;;;;;10945529;32;20015;-72
2022/07/21 03:37:12;;;;;;;5.72;2.33;;;28.00;57.00;;;;;;10945403;32;20007;-72
2022/07/21 03:43:14;;;;;;;3.17;1.98;;;27.80;57.50;;;;;;10945095;32;20042;-72
2022/07/21 03:49:16;;;;;;;5.50;1.95;;;27.80;57.60;;;;;;10942514;32;20041;-72
2022/07/21 03:55:18;;;;;;;3.95;2.28;;;27.70;57.60;;;;;;10944416;32;20023;-72
2022/07/21 04:01:20;;;;;;;2.60;2.25;;;27.50;58.00;;;;;;10944225;32;20034;-72
2022/07/21 04:07:22;;;;;;;6.12;2.55;;;27.60;57.80;;;;;;10943600;32;20007;-72
2022/07/21 04:13:24;;;;;;;3.60;2.03;;;27.70;57.60;;;;;;10943948;32;20309;-72
2022/07/21 04:19:26;;;;;;;3.10;2.15;;;27.60;57.70;;;;;;10943681;32;20312;-72
2022/07/21 04:25:29;;;;;;;3.22;2.28;;;27.60;57.60;;;;;;10943312;32;20049;-72
2022/07/21 04:31:38;;;;;;;9.10;2.65;;;27.50;57.80;;;;;;10932459;27;20296;-72
2022/07/21 04:37:41;;;;;;;5.78;2.67;;;27.60;57.80;;;;;;10943056;32;20031;-72
2022/07/21 04:43:43;;;;;;;5.07;2.97;;;27.60;57.90;;;;;;10942698;32;20043;-72
2022/07/21 04:50:08;;;;;;;3.83;2.40;;;27.50;58.20;;;;;;10942704;32;20023;-72
2022/07/21 04:56:10;;;;;;;3.67;2.72;;;27.60;58.20;;;;;;10942515;32;20031;-72
2022/07/21 05:02:14;;;;;;;4.10;2.45;;;27.80;57.80;;;;;;10942281;32;20018;-72
2022/07/21 05:08:20;;;;;;;4.28;2.42;;;27.90;57.60;;;;;;10942113;32;20348;-72
2022/07/21 05:14:22;;;;;;;10.60;2.85;;;27.90;57.40;;;;;;10941863;32;20045;-72
2022/07/21 05:20:24;;;;;;;4.03;2.22;;;27.90;57.40;;;;;;10941631;32;20031;-72
2022/07/21 05:26:37;;;;;;;6.62;2.80;;;27.90;57.40;;;;;;10928261;32;20053;-73
2022/07/21 05:32:42;;;;;;;4.65;2.17;;;28.00;57.10;;;;;;10941597;32;20081;-72
2022/07/21 05:38:44;;;;;;;3.35;2.58;;;28.10;57.00;;;;;;10941346;32;20041;-72
2022/07/21 05:44:46;;;;;;;4.40;2.92;;;28.10;56.90;;;;;;10936993;32;20112;-72
2022/07/21 05:50:48;;;;;;;4.35;2.85;;;28.20;56.80;;;;;;10941134;32;20023;-73
2022/07/21 05:56:51;;;;;;;8.00;3.28;;;28.30;56.60;;;;;;10941190;32;20339;-72
2022/07/21 06:02:53;;;;;;;6.60;2.95;;;28.30;56.50;;;;;;10941005;32;20035;-72
2022/07/21 06:08:55;;;;;;;1.90;1.42;;;28.60;56.30;;;;;;10940988;32;20383;-72
2022/07/21 06:14:58;;;;;;;2.55;1.77;;;28.80;56.00;;;;;;10941028;32;20027;-72
2022/07/21 06:21:00;;;;;;;1.98;1.52;;;29.00;55.70;;;;;;10922993;32;20031;-72
2022/07/21 06:27:04;;;;;;;2.42;1.58;;;29.30;55.50;;;;;;10940525;32;20069;-73
2022/07/21 06:33:06;;;;;;;5.00;1.90;;;29.40;55.20;;;;;;10932089;32;20027;-73
2022/07/21 06:39:12;;;;;;;6.68;1.62;;;29.60;54.90;;;;;;10946884;32;20062;-72
2022/07/21 06:45:14;;;;;;;2.78;1.55;;;29.70;54.40;;;;;;10946992;32;20053;-72
2022/07/21 06:51:16;;;;;;;3.03;1.83;;;29.80;54.30;;;;;;10946832;32;20438;-73
2022/07/21 06:57:18;;;;;;;6.03;1.73;;;29.80;54.00;;;;;;10945840;32;20445;-73
2022/07/21 07:03:20;;;;;;;2.85;1.55;;;29.90;53.70;;;;;;10946540;32;20031;-73
2022/07/21 07:09:23;;;;;;;2.58;1.30;;;30.10;53.50;;;;;;10943823;32;20020;-73
2022/07/21 07:15:25;;;;;;;3.10;1.67;;;30.30;53.30;;;;;;10946292;32;20267;-73
2022/07/21 07:21:27;;;;;;;2.87;1.80;;;30.30;53.10;;;;;;10944376;32;20054;-73
2022/07/21 07:27:30;;;;;;;2.37;1.65;;;30.40;52.30;;;;;;10930336;32;20051;-73
2022/07/21 07:33:32;;;;;;;2.60;1.52;;;30.50;52.40;;;;;;10932149;32;20027;-72
2022/07/21 07:39:37;;;;;;;2.53;1.60;;;30.70;52.00;;;;;;10931842;32;20030;-73
2022/07/21 07:45:39;;;;;;;4.00;1.87;;;30.80;51.50;;;;;;10929502;32;20069;-72
2022/07/21 07:51:41;;;;;;;9.57;1.67;;;30.90;51.00;;;;;;10918072;32;20053;-73
2022/07/21 07:57:46;;;;;;;5.50;1.42;;;30.90;50.30;;;;;;10916439;32;20035;-73
2022/07/21 08:03:48;;;;;;;3.00;1.48;;;31.10;50.20;;;;;;10906738;32;20399;-73
2022/07/21 08:09:50;;;;;;;3.05;1.27;;;31.30;50.00;;;;;;10906724;32;20031;-72
2022/07/21 08:15:53;;;;;;;2.33;1.27;;;31.30;48.50;;;;;;10906398;32;20046;-72
2022/07/21 08:21:56;;;;;;;2.78;1.40;;;31.30;48.00;;;;;;10901938;32;20336;-72
2022/07/21 08:27:58;;;;;;;4.37;1.02;;;31.50;47.90;;;;;;10905897;32;20023;-72
2022/07/21 08:34:00;;;;;;;2.40;1.08;;;31.60;46.80;;;;;;10906167;32;20027;-72
2022/07/21 08:40:08;;;;;;;2.33;1.60;;;31.80;46.20;;;;;;10905475;32;20054;-72
2022/07/21 08:46:11;;;;;;;3.95;0.90;;;31.80;45.90;;;;;;10905310;32;20423;-72
2022/07/21 08:52:13;;;;;;;1.95;1.23;;;32.00;45.70;;;;;;10904807;32;20030;-72
2022/07/21 08:58:15;;;;;;;2.80;1.48;;;32.20;45.30;;;;;;10903988;32;20027;-72
2022/07/21 09:04:23;;;;;;;2.45;1.30;;;32.40;44.50;;;;;;10904636;32;20027;-72
2022/07/21 09:10:29;;;;;;;2.42;1.25;;;32.50;43.50;;;;;;10904596;32;20054;-72
2022/07/21 09:17:17;;;;;;;1.20;0.90;;;32.60;42.80;;;;;;10904616;32;20395;-73
2022/07/21 09:23:21;;;;;;;1.95;1.33;;;32.80;42.60;;;;;;10898960;32;20093;-72
2022/07/21 09:29:25;;;;;;;5.62;1.70;;;32.90;42.00;;;;;;10903402;32;20388;-73
2022/07/21 09:35:27;;;;;;;1.87;1.45;;;33.20;41.30;;;;;;10904125;32;20300;-72
2022/07/21 09:41:33;;;;;;;4.40;2.20;;;33.40;40.90;;;;;;10904146;32;20062;-72
2022/07/21 09:47:38;;;;;;;3.80;1.67;;;33.50;39.20;;;;;;10915789;32;20043;-72
2022/07/21 09:53:51;;;;;;;5.15;2.47;;;33.60;39.10;;;;;;10979225;32;20041;-72
2022/07/21 10:00:14;;;;;;;4.75;2.83;;;33.70;38.40;;;;;;10980045;32;20327;-71
2022/07/21 10:06:22;;;;;;;5.47;2.12;;;34.00;37.00;;;;;;10981886;32;20027;-72
2022/07/21 10:12:27;;;;;;;2.35;1.30;;;34.00;36.90;;;;;;10986282;32;20061;-72
2022/07/21 10:18:35;;;;;;;2.40;1.50;;;34.00;37.30;;;;;;10986167;32;20437;-72
2022/07/21 10:24:37;;;;;;;7.37;2.33;;;34.30;36.70;;;;;;10985607;32;20054;-72
2022/07/21 10:30:42;;;;;;;6.80;2.87;;;34.50;35.30;;;;;;10985513;32;20080;-72
2022/07/21 10:37:10;;;;;;;3.28;2.10;;;34.70;34.80;;;;;;10973320;32;20058;-72
2022/07/21 10:43:14;;;;;;;6.75;2.58;;;34.70;34.30;;;;;;10971636;32;20026;-72
2022/07/21 10:56:31;;;;;;;8.60;3.83;;;35.30;34.10;;;;;;10984555;32;20053;-73
2022/07/21 11:02:35;;;;;;;8.00;2.53;;;35.40;33.30;;;;;;10984374;32;20030;-71
2022/07/21 11:08:49;;;;;;;3.40;2.45;;;35.50;33.70;;;;;;10970678;32;20050;-72
2022/07/21 11:14:51;;;;;;;5.65;3.67;;;35.70;33.00;;;;;;10983543;32;20046;-72
2022/07/21 11:21:07;;;;;;;4.95;2.08;;;36.00;33.90;;;;;;10983459;32;20034;-72
2022/07/21 11:28:09;;;;;;;3.03;2.37;;;36.20;33.50;;;;;;10983603;32;20026;-73
2022/07/21 11:34:12;;;;;;;3.85;2.87;;;36.60;33.50;;;;;;10863582;32;20046;-72
2022/07/21 11:40:19;;;;;;;5.03;2.65;;;36.70;33.50;;;;;;10866858;32;20336;-72
2022/07/21 11:46:21;;;;;;;12.07;3.40;;;36.90;33.10;;;;;;10866744;32;20411;-72
2022/07/21 11:52:31;;;;;;;5.85;3.10;;;37.00;33.10;;;;;;10866959;32;20027;-72
2022/07/21 11:58:34;;;;;;;7.10;3.47;;;37.20;32.80;;;;;;10866966;32;20328;-72
2022/07/21 12:04:45;;;;;;;5.47;3.60;;;37.40;32.20;;;;;;10963784;32;20417;-72
2022/07/21 12:10:47;;;;;;;4.62;2.95;;;37.40;31.90;;;;;;10910177;32;20352;-72
2022/07/21 12:16:53;;;;;;;3.85;2.75;;;37.50;31.50;;;;;;10906346;32;20024;-72
2022/07/21 12:23:21;;;;;;;5.32;3.35;;;37.70;31.20;;;;;;10906004;32;20023;-72
2022/07/21 12:29:29;;;;;;;4.22;2.40;;;37.80;31.00;;;;;;10908985;27;20399;-72
2022/07/21 12:35:31;;;;;;;4.40;2.70;;;37.90;31.00;;;;;;10894244;32;20032;-72
2022/07/21 12:41:44;;;;;;;4.35;3.78;;;37.90;30.40;;;;;;10890142;32;20070;-72
2022/07/21 12:48:27;;;;;;;5.10;3.53;;;37.80;29.30;;;;;;10892909;32;20019;-72
2022/07/21 12:54:48;;;;;;;4.82;3.58;;;37.80;29.20;;;;;;10713644;33;20044;-72
2022/07/21 13:00:51;;;;;;;7.00;4.25;;;37.80;28.60;;;;;;10704582;33;20111;-72
2022/07/21 13:07:12;;;;;;;4.80;3.60;;;37.90;28.90;;;;;;10708323;33;20071;-72
2022/07/21 13:13:14;;;;;;;10.23;3.12;;;37.90;28.50;;;;;;10715029;33;20037;-72
2022/07/21 13:19:31;;;;;;;5.78;3.92;;;37.90;28.60;;;;;;10717270;33;20036;-72
2022/07/21 13:25:34;;;;;;;4.78;3.60;;;37.90;28.40;;;;;;10878868;32;20028;-72
2022/07/21 13:31:36;;;;;;;5.12;3.10;;;37.80;28.30;;;;;;10904045;32;20027;-72
2022/07/21 13:37:39;;;;;;;5.53;4.37;;;37.80;28.40;;;;;;10904325;32;20345;-72
2022/07/21 13:43:40;;;;;;;5.50;3.70;;;37.80;28.60;;;;;;10910207;32;20066;-72
2022/07/21 13:49:42;;;;;;;5.75;3.45;;;37.60;28.80;;;;;;10898313;32;20384;-72
2022/07/21 13:55:44;;;;;;;5.40;2.92;;;37.60;28.90;;;;;;10898023;32;20302;-72
2022/07/21 14:01:48;;;;;;;7.28;3.22;;;37.70;28.80;;;;;;10911118;32;20027;-72
2022/07/21 14:07:57;;;;;;;11.75;3.00;;;37.70;28.90;;;;;;10911069;32;20061;-72
2022/07/21 14:14:00;;;;;;;4.85;3.22;;;37.80;28.60;;;;;;10910802;32;20050;-71
2022/07/21 14:20:02;;;;;;;6.03;3.72;;;37.70;28.20;;;;;;10910184;32;20035;-71
2022/07/21 14:26:05;;;;;;;6.10;3.42;;;37.60;28.40;;;;;;10906094;32;20027;-71
2022/07/21 14:32:07;;;;;;;4.37;2.80;;;37.60;28.50;;;;;;10910075;32;20388;-70
2022/07/21 14:38:10;;;;;;;4.07;2.78;;;37.80;28.40;;;;;;10909898;32;20015;-72
2022/07/21 14:44:13;;;;;;;3.42;2.55;;;37.80;28.30;;;;;;10906931;32;20031;-72
2022/07/21 14:50:16;;;;;;;4.35;2.90;;;37.70;28.10;;;;;;10872117;32;20050;-72
2022/07/21 14:56:32;;;;;;;4.25;2.90;;;37.70;27.60;;;;;;10889259;32;20330;-72
2022/07/21 15:02:34;;;;;;;4.60;2.78;;;37.60;27.60;;;;;;10946649;32;20392;-72
2022/07/21 15:08:36;;;;;;;7.53;3.35;;;37.50;27.90;;;;;;10941857;32;20035;-71
2022/07/21 15:14:39;;;;;;;5.07;2.83;;;37.50;27.90;;;;;;10946487;32;20023;-71
2022/07/21 15:20:41;;;;;;;5.47;2.65;;;37.40;27.70;;;;;;10946197;32;20104;-70
2022/07/21 15:26:43;;;;;;;5.03;3.35;;;37.50;27.50;;;;;;10946026;32;20054;-72
2022/07/21 15:32:45;;;;;;;4.70;3.40;;;37.60;27.30;;;;;;10945707;32;20031;-71
2022/07/21 15:38:48;;;;;;;5.40;3.42;;;37.50;27.30;;;;;;10945759;32;20407;-73
2022/07/21 15:44:51;;;;;;;3.85;3.05;;;37.40;29.00;;;;;;10945244;32;20059;-72
2022/07/21 15:50:53;;;;;;;4.10;2.78;;;37.40;28.50;;;;;;10945126;32;20022;-72
2022/07/21 15:56:55;;;;;;;5.35;4.00;;;37.40;28.80;;;;;;10944789;32;20053;-72
2022/07/21 16:02:58;;;;;;;5.65;3.40;;;37.40;28.90;;;;;;10943893;32;20023;-72
2022/07/21 16:08:59;;;;;;;6.20;3.65;;;37.40;28.90;;;;;;10944496;32;20069;-72
2022/07/21 16:15:02;;;;;;;13.52;4.40;;;37.40;29.10;;;;;;10944030;32;20030;-72
2022/07/21 16:21:04;;;;;;;7.15;5.00;;;37.40;29.80;;;;;;10943929;32;20023;-73
2022/07/21 16:27:07;;;;;;;9.27;4.60;;;37.40;30.70;;;;;;10943739;32;20027;-72
2022/07/21 16:33:09;;;;;;;7.87;4.93;;;37.50;30.30;;;;;;10915224;32;20036;-72
2022/07/21 16:39:11;;;;;;;6.87;3.90;;;37.60;30.00;;;;;;10892512;32;20335;-73
2022/07/21 16:45:24;;;;;;;6.85;4.03;;;37.50;30.00;;;;;;10905495;32;20024;-73
2022/07/21 16:51:26;;;;;;;5.15;3.55;;;37.60;30.00;;;;;;10905332;32;20023;-72
2022/07/21 16:57:28;;;;;;;8.15;4.12;;;37.40;30.30;;;;;;10905070;32;20023;-72
2022/07/21 17:03:30;;;;;;;7.15;5.10;;;37.40;30.80;;;;;;10888927;32;20059;-72
2022/07/21 17:09:32;;;;;;;9.98;5.40;;;37.40;30.70;;;;;;10884348;32;20028;-72
2022/07/21 17:15:36;;;;;;;6.10;4.03;;;37.20;30.80;;;;;;10904364;32;20046;-72
2022/07/21 17:21:38;;;;;;;5.22;3.50;;;37.30;31.00;;;;;;10877412;32;20024;-72
2022/07/21 17:27:40;;;;;;;8.75;3.60;;;37.30;31.10;;;;;;10874194;32;20450;-72
2022/07/21 17:33:42;;;;;;;6.12;4.12;;;37.10;31.40;;;;;;10892472;32;20036;-72
2022/07/21 17:39:44;;;;;;;5.85;3.58;;;37.00;31.40;;;;;;10887097;32;20028;-72
2022/07/21 17:45:46;;;;;;;7.20;4.00;;;36.90;31.10;;;;;;10881175;32;20047;-72
2022/07/21 17:51:48;;;;;;;4.62;2.83;;;36.90;31.00;;;;;;10904040;32;20319;-73
2022/07/21 18:04:11;;;;;;;4.10;2.62;;;38.90;29.40;;;;;;10903744;32;20090;-73
2022/07/21 18:10:13;;;;;;;3.70;2.30;;;39.40;29.20;;;;;;10903910;32;20050;-72
2022/07/21 18:16:15;;;;;;;6.25;2.97;;;38.70;29.80;;;;;;10903460;32;20041;-73
2022/07/21 18:22:17;;;;;;;4.87;2.30;;;37.70;31.20;;;;;;10903363;32;20027;-72
2022/07/21 18:28:19;;;;;;;3.15;1.85;;;36.90;32.30;;;;;;10907253;32;20019;-72
2022/07/21 18:34:21;;;;;;;6.75;2.97;;;36.40;33.30;;;;;;10910145;32;20352;-72
2022/07/21 18:40:24;;;;;;;13.95;2.72;;;35.90;34.30;;;;;;10896576;32;20023;-72
2022/07/21 18:46:26;;;;;;;3.17;2.10;;;35.60;34.90;;;;;;10905602;32;20058;-72
2022/07/21 18:52:28;;;;;;;3.00;2.20;;;35.40;35.10;;;;;;10905350;32;20062;-72
2022/07/21 18:58:30;;;;;;;2.03;1.20;;;35.30;35.20;;;;;;10909351;32;20416;-72
2022/07/21 19:04:33;;;;;;;3.10;1.73;;;35.10;35.90;;;;;;10908948;32;20026;-72
2022/07/21 19:10:36;;;;;;;3.17;1.75;;;34.80;36.70;;;;;;10908890;32;20020;-72
2022/07/21 19:16:39;;;;;;;3.70;2.12;;;34.70;36.90;;;;;;10887861;32;20019;-72
2022/07/21 19:22:43;;;;;;;3.22;1.62;;;34.60;37.10;;;;;;10871173;32;20069;-72
2022/07/21 19:28:48;;;;;;;3.00;1.58;;;34.50;37.70;;;;;;10857709;32;20395;-72
2022/07/21 19:34:50;;;;;;;2.35;1.40;;;34.40;37.90;;;;;;10869798;32;20036;-72
2022/07/21 19:40:52;;;;;;;4.10;1.65;;;34.20;38.20;;;;;;10870297;32;20023;-72
2022/07/21 19:46:54;;;;;;;3.40;1.87;;;34.10;39.10;;;;;;10870370;32;20054;-72
2022/07/21 19:52:57;;;;;;;3.87;1.52;;;33.90;39.30;;;;;;10870207;32;20028;-72
2022/07/21 19:59:01;;;;;;;3.30;2.33;;;33.90;39.60;;;;;;10869807;32;20050;-72
2022/07/21 20:05:04;;;;;;;2.35;1.83;;;33.80;39.90;;;;;;10887422;32;20030;-72
2022/07/21 20:11:09;;;;;;;2.85;1.48;;;33.70;40.20;;;;;;10906732;32;20328;-72
2022/07/21 20:17:11;;;;;;;7.93;1.95;;;33.60;40.80;;;;;;10906534;32;20058;-72
2022/07/21 20:23:13;;;;;;;4.93;3.12;;;33.40;41.10;;;;;;10906294;32;20434;-72
2022/07/21 20:29:17;;;;;;;7.50;3.72;;;33.40;41.90;;;;;;10165484;32;22069852;-72
2022/07/21 20:35:20;;;;;;;22.35;3.28;;;33.10;43.40;;;;;;10754890;33;20052;-72
2022/07/21 20:41:22;;;;;;;3.92;2.30;;;33.00;44.30;;;;;;10754206;33;20523;-72
2022/07/21 20:47:24;;;;;;;5.65;3.12;;;32.90;44.20;;;;;;10754332;33;20028;-72
2022/07/21 20:53:27;;;;;;;6.80;3.08;;;32.80;44.30;;;;;;10771293;32;20039;-72
2022/07/21 20:59:29;;;;;;;5.53;2.78;;;32.70;44.50;;;;;;10830726;32;20430;-72
2022/07/21 21:05:31;;;;;;;6.80;3.35;;;32.70;44.70;;;;;;10830571;32;20093;-72
2022/07/21 21:11:34;;;;;;;10.40;2.60;;;32.60;45.80;;;;;;10830569;32;20024;-72
2022/07/21 21:17:36;;;;;;;6.35;2.37;;;32.40;46.10;;;;;;10830330;32;20341;-72
2022/07/21 21:23:38;;;;;;;4.62;1.80;;;32.30;46.20;;;;;;10817101;32;20051;-72
2022/07/21 21:29:41;;;;;;;4.32;2.35;;;32.30;46.60;;;;;;10826299;32;20024;-72
2022/07/21 21:35:43;;;;;;;3.55;2.00;;;32.30;46.90;;;;;;10829628;33;20024;-72
2022/07/21 21:41:45;;;;;;;5.97;2.58;;;32.10;47.00;;;;;;10829834;33;20055;-72
2022/07/21 21:47:47;;;;;;;4.07;2.75;;;32.00;47.90;;;;;;10829912;33;20290;-72
2022/07/21 21:53:49;;;;;;;3.50;2.12;;;31.90;48.10;;;;;;10829671;33;20019;-72
2022/07/21 21:59:51;;;;;;;3.10;1.92;;;31.80;48.40;;;;;;10829462;32;20074;-72
2022/07/21 22:05:53;;;;;;;3.33;1.65;;;31.80;49.30;;;;;;10832600;33;20032;-72
2022/07/21 22:11:55;;;;;;;3.90;2.28;;;31.80;49.20;;;;;;10835808;32;20340;-72
2022/07/21 22:17:57;;;;;;;4.22;2.30;;;31.50;49.30;;;;;;10836387;32;20054;-72
2022/07/21 22:24:00;;;;;;;4.12;2.40;;;31.50;49.90;;;;;;10836075;32;20028;-72
2022/07/21 22:30:05;;;;;;;3.17;2.10;;;31.40;50.00;;;;;;10835820;32;20082;-72
2022/07/21 22:36:09;;;;;;;4.12;1.98;;;31.20;50.10;;;;;;10805974;32;20381;-72
2022/07/21 22:42:11;;;;;;;3.47;1.90;;;31.10;50.20;;;;;;10798636;33;20044;-72
2022/07/21 22:48:13;;;;;;;2.80;1.58;;;31.20;50.40;;;;;;10798120;33;20024;-72
2022/07/21 22:54:15;;;;;;;2.87;1.90;;;31.20;50.30;;;;;;10798422;33;20048;-72
2022/07/21 23:00:19;;;;;;;3.90;2.22;;;31.10;50.90;;;;;;10797825;33;20028;-72
2022/07/21 23:06:22;;;;;;;3.75;2.42;;;31.00;51.50;;;;;;10798006;33;20330;-72
2022/07/21 23:12:24;;;;;;;6.45;2.50;;;31.00;52.10;;;;;;10792458;33;20047;-72
2022/07/21 23:18:26;;;;;;;4.78;3.30;;;30.90;52.10;;;;;;10795073;33;20028;-72
2022/07/21 23:24:29;;;;;;;2.92;1.95;;;30.80;52.40;;;;;;10797159;33;20051;-72
2022/07/21 23:30:31;;;;;;;7.35;2.83;;;30.60;53.00;;;;;;10793152;33;20423;-72
2022/07/21 23:36:33;;;;;;;2.55;1.83;;;30.50;52.90;;;;;;10796810;33;20053;-72
2022/07/21 23:42:35;;;;;;;3.72;2.28;;;30.60;53.00;;;;;;10792774;33;20071;-72
2022/07/21 23:48:38;;;;;;;4.10;2.62;;;30.60;52.80;;;;;;10796481;33;20024;-72
2022/07/21 23:54:40;;;;;;;3.10;2.17;;;30.60;53.20;;;;;;10796184;33;20459;-72
